SAZSSCTE

Guest
Details From SAZS - SAN CARLOS DE BARILOCHE
To SCTE - El Tepual
Flight Number -
Tags generated
Created
Modified
Stats Distance 89 nm / 165 km
Max Altitude 0 ft / 0 m
Waypoints 3
Social Downloads 4
Likes 0
Share VATSIM

Download

Looking for another format? Having issues loading an existing format? Contact us
Advertisement - Login to hide

Notes

Basic altitude profile: - Ascent Rate: 1800ft/min - Ascent Speed: 320kts - Cruise Altitude: 35000ft - Cruise Speed: 320kts - Descent Rate: 1800ft/min - Descent Speed: 200kts Options: - Use NATs: yes - Use PACOTS: yes - Use low airways: yes - Use high airways: yes

Route

SAZS TEPNB SCTE

ID Type Via Altitude Latitude Longitude Leg Dist Tot Dist Heading (true) Name
O SAZS APT - 0 ft / 0 m -41.15117˚ -71.15754˚ - 0 nm - SAN CARLOS DE BARILOCHE
TEPNB FIX - 0 ft / 0 m -41.43778˚ -73.08722˚ 88 nm 88 nm 258° / 259° -
O SCTE APT - 0 ft / 0 m -41.43888˚ -73.09395˚ 0 nm 89 nm 258° / 258° El Tepual

Altitude Profile

Advertisement - Login to hide

SAZS

Details ICAO SAZS (BRC)
Name SAN CARLOS DE BARILOCHE
Region Argentina
Timezone America/Argentina/Salta (UTC-3.0)
Stats Elevation 2,776 ft / 846 m (AMSL)
Location -41.151172° -71.157541°
Runways 1
Magnetic Variation 6.659° E

METAR

SAZS 111500Z 32009KT CAVOK 26/05 Q1011

Decode

TAF

TAF SAZS 111100Z 1112/1212 02010KT CAVOK TX28/1118Z TN10/1209Z BECMG 1113/1115 29015G25KT BECMG 1122/1200 29010KT 9999 SCT030 SCT100 BECMG 1205/1207 26005KT

Decode

Departure Runways

ID Width Length Bearing (true) Bearing (mag) Surface Threshold Offset Overrun Length
11 157 ft / 48 m 7,693 ft / 2,345 m 114.70° 108.04° Asphalt 0 ft / 0 m 0 ft / 0 m
29 157 ft / 48 m 7,693 ft / 2,345 m 294.68° 288.02° Asphalt 0 ft / 0 m 0 ft / 0 m

SCTE

Details ICAO SCTE (PMC)
Name El Tepual
Region Chile
Timezone America/Santiago (UTC-3.0)
Stats Elevation 293 ft / 89 m (AMSL)
Location -41.438884° -73.093954°
Runways 1
Magnetic Variation 8.488° E

METAR

SCTE 111500Z 16007KT 120V200 9999 FEW019 BKN200 18/13 Q1012 NOSIG

Decode

TAF

TAF AMD SCTE 110809Z 1108/1206 17010KT 9999 BKN003 TN11/1110Z TX21/1119Z PROB40 TEMPO 1108/1111 5000 -DZ OVC002 BECMG 1114/1116 SCT025 TEMPO 1118/1122 CAVOK

Decode

Destination Runways

ID Width Length Bearing (true) Bearing (mag) Surface Threshold Offset Overrun Length
17 148 ft / 45 m 8,702 ft / 2,652 m 172.00° 163.51° Concrete 0 ft / 0 m 0 ft / 0 m
35 148 ft / 45 m 8,702 ft / 2,652 m 352.00° 343.51° Concrete 0 ft / 0 m 0 ft / 0 m

Approach Navaids

Runway Type Ident Frequency Range Bearing (true) Bearing (mag) Slope Elevation
35 Localiser IMON 110.10 MHz 18 nm / 33 km 351.94° 343.46° - 293 ft / 89 m (AMSL)
35 Glidescope IMON 110.10 MHz 10 nm / 19 km 352.00° 343.51° 3.00° 293 ft / 89 m (AMSL)
35 DME IMON 115.70 MHz 18 nm / 33 km - - - 293 ft / 89 m (AMSL)

Popular Alternatives